Time;durP1;ratioP1;P1;durP2;ratioP2;P2;SDS_P1;SDS_P2;PMS_P1;PMS_P2;Temp;Humidity;BMP_temperature;BMP_pressure;BME280_temperature;BME280_humidity;BME280_pressure;Samples;Min_cycle;Max_cycle;Signal;HPM_P1;HPM_P2
2021/04/08 00:02:14;;;;;;;10.17;1.80;;;2.80;99.90;;;;;;4995851;28;20200;-57
2021/04/08 00:04:40;;;;;;;9.70;1.60;;;2.80;99.90;;;;;;5000460;28;20943;-55
2021/04/08 00:07:06;;;;;;;13.53;2.10;;;2.90;99.90;;;;;;5003753;28;20200;-57
2021/04/08 00:09:32;;;;;;;11.83;1.83;;;2.90;99.90;;;;;;4999223;28;20217;-60
2021/04/08 00:11:58;;;;;;;14.63;2.20;;;2.90;99.90;;;;;;5003790;28;20572;-59
2021/04/08 00:14:25;;;;;;;7.37;1.90;;;2.90;99.90;;;;;;4978202;28;20204;-55
2021/04/08 00:16:53;;;;;;;9.07;1.40;;;2.90;99.90;;;;;;4996651;28;20879;-59
2021/04/08 00:19:20;;;;;;;15.27;2.77;;;2.90;99.90;;;;;;4995782;28;20314;-59
2021/04/08 00:21:46;;;;;;;6.63;1.50;;;2.90;99.90;;;;;;5001260;28;20210;-54
2021/04/08 00:24:12;;;;;;;11.43;2.33;;;2.90;99.90;;;;;;5003097;28;20204;-60
2021/04/08 00:26:38;;;;;;;9.93;1.97;;;2.90;99.90;;;;;;5000035;28;20271;-51
2021/04/08 00:29:05;;;;;;;12.57;2.03;;;2.90;99.90;;;;;;5003060;28;20218;-50
2021/04/08 00:31:31;;;;;;;13.73;1.93;;;2.80;99.90;;;;;;4979940;28;20308;-52
2021/04/08 00:33:58;;;;;;;9.07;2.23;;;2.80;99.90;;;;;;4997788;28;20549;-52
2021/04/08 00:36:24;;;;;;;7.83;2.37;;;2.80;99.90;;;;;;5000599;28;20205;-61
2021/04/08 00:38:50;;;;;;;9.57;2.27;;;2.90;99.90;;;;;;5001825;28;20618;-51
2021/04/08 00:41:17;;;;;;;11.47;2.37;;;2.80;99.90;;;;;;5002193;28;20231;-60
2021/04/08 00:43:43;;;;;;;9.70;1.80;;;2.90;99.90;;;;;;4997922;28;20252;-57
2021/04/08 00:46:09;;;;;;;14.07;2.80;;;2.90;99.90;;;;;;4981632;28;20204;-58
2021/04/08 00:48:35;;;;;;;11.17;2.63;;;2.90;99.90;;;;;;4991176;28;20538;-57
2021/04/08 00:51:03;;;;;;;11.27;1.93;;;3.00;99.90;;;;;;4998337;28;20228;-58
2021/04/08 00:53:33;;;;;;;9.87;2.07;;;3.00;99.90;;;;;;4999161;28;20213;-57
2021/04/08 00:56:00;;;;;;;14.47;1.80;;;3.00;99.90;;;;;;5004835;28;20600;-57
2021/04/08 00:58:27;;;;;;;8.73;1.97;;;3.00;99.90;;;;;;5001866;28;20565;-57
2021/04/08 01:00:54;;;;;;;11.13;2.47;;;3.00;99.90;;;;;;4984677;28;20234;-56
2021/04/08 01:03:22;;;;;;;14.03;2.47;;;3.00;99.90;;;;;;4993136;28;20208;-57
2021/04/08 01:05:48;;;;;;;7.77;1.90;;;3.00;99.90;;;;;;5000390;28;20202;-56
2021/04/08 01:08:15;;;;;;;15.80;2.43;;;3.10;99.90;;;;;;5004013;28;20219;-55
2021/04/08 01:10:43;;;;;;;8.33;1.73;;;3.00;99.90;;;;;;5000281;28;20342;-53
2021/04/08 01:13:12;;;;;;;13.10;2.17;;;3.00;99.90;;;;;;4998442;28;20233;-54
2021/04/08 01:15:39;;;;;;;6.73;1.97;;;3.00;99.90;;;;;;4989006;28;20430;-50
2021/04/08 01:18:12;;;;;;;13.53;2.20;;;3.00;99.90;;;;;;4982600;28;20339;-51
2021/04/08 01:21:01;;;;;;;8.37;1.77;;;3.00;99.90;;;;;;4995052;28;20871;-50
2021/04/08 01:24:09;;;;;;;9.30;1.70;;;3.00;99.90;;;;;;4998583;28;20209;-56
2021/04/08 01:27:11;;;;;;;7.13;1.53;;;3.00;99.90;;;;;;4998116;28;20193;-59
2021/04/08 01:29:58;;;;;;;8.60;1.53;;;2.90;99.90;;;;;;4999033;28;20851;-60
2021/04/08 01:32:27;;;;;;;8.07;1.70;;;2.90;99.90;;;;;;4976451;28;20275;-52
2021/04/08 01:34:56;;;;;;;13.13;1.90;;;2.90;99.90;;;;;;5000580;28;20625;-59
2021/04/08 01:37:28;;;;;;;10.90;1.90;;;2.90;99.90;;;;;;5000292;28;20244;-54
2021/04/08 01:39:55;;;;;;;5.60;1.43;;;2.90;99.90;;;;;;5002310;28;20229;-59
2021/04/08 01:42:24;;;;;;;10.30;1.57;;;2.90;99.90;;;;;;5000475;28;20212;-57
2021/04/08 01:44:52;;;;;;;8.03;1.70;;;2.80;99.90;;;;;;4992462;28;20205;-59
2021/04/08 01:47:19;;;;;;;11.27;1.73;;;2.80;99.90;;;;;;4978672;28;20292;-55
2021/04/08 01:49:47;;;;;;;6.53;1.40;;;2.80;99.90;;;;;;4987905;28;20370;-61
2021/04/08 01:52:15;;;;;;;5.93;1.77;;;2.80;99.90;;;;;;5001985;28;20282;-56
2021/04/08 01:54:45;;;;;;;11.53;1.80;;;2.80;99.90;;;;;;5000147;28;20235;-58
2021/04/08 01:57:13;;;;;;;10.20;2.23;;;2.80;99.90;;;;;;5002473;28;20588;-56
2021/04/08 01:59:42;;;;;;;10.67;1.70;;;2.80;99.90;;;;;;4999023;28;20296;-59
2021/04/08 02:02:09;;;;;;;11.17;1.20;;;2.80;99.90;;;;;;5005109;28;20222;-59
2021/04/08 02:04:38;;;;;;;8.13;1.57;;;2.80;99.90;;;;;;4982025;28;20283;-57
2021/04/08 02:07:06;;;;;;;6.70;1.17;;;2.80;99.90;;;;;;5000064;28;20717;-59
2021/04/08 02:09:33;;;;;;;8.70;1.50;;;2.70;99.90;;;;;;5001538;28;21057;-58
2021/04/08 02:12:00;;;;;;;6.53;1.47;;;2.70;99.90;;;;;;5006010;28;20243;-60
2021/04/08 02:14:28;;;;;;;9.17;1.80;;;2.70;99.90;;;;;;4996838;28;20214;-55
2021/04/08 02:16:57;;;;;;;12.03;1.73;;;2.70;99.90;;;;;;5001933;28;20208;-60
2021/04/08 02:19:25;;;;;;;8.17;1.27;;;2.70;99.90;;;;;;4984890;28;20228;-54
2021/04/08 02:21:52;;;;;;;7.50;1.40;;;2.60;99.90;;;;;;4995251;28;20282;-52
2021/04/08 02:24:20;;;;;;;8.13;1.47;;;2.60;99.90;;;;;;5003849;28;20234;-58
2021/04/08 02:26:49;;;;;;;11.30;1.57;;;2.60;99.90;;;;;;5003717;28;20196;-51
2021/04/08 02:29:17;;;;;;;9.03;1.47;;;2.50;99.90;;;;;;5004083;28;20689;-56
2021/04/08 02:31:44;;;;;;;4.30;1.13;;;2.50;99.90;;;;;;5003118;28;20897;-53
2021/04/08 02:34:11;;;;;;;10.93;2.00;;;2.50;99.90;;;;;;4989699;28;20212;-56
2021/04/08 02:36:38;;;;;;;7.30;1.33;;;2.50;99.90;;;;;;4996681;28;20204;-50
2021/04/08 02:39:05;;;;;;;6.67;1.33;;;2.40;99.90;;;;;;5004986;28;20573;-50
2021/04/08 02:41:37;;;;;;;8.83;1.57;;;2.40;99.90;;;;;;5000911;28;20281;-54
2021/04/08 02:44:04;;;;;;;6.03;1.13;;;2.40;99.90;;;;;;4997345;28;20569;-49
2021/04/08 02:46:30;;;;;;;7.60;1.47;;;2.40;99.90;;;;;;4999452;28;20209;-59
2021/04/08 02:48:57;;;;;;;11.53;1.67;;;2.40;99.90;;;;;;4988757;28;20219;-51
2021/04/08 02:51:28;;;;;;;9.53;1.73;;;2.40;99.90;;;;;;4993398;28;20232;-59
2021/04/08 02:54:00;;;;;;;6.93;1.83;;;2.40;99.90;;;;;;5002899;28;20278;-50
2021/04/08 02:56:33;;;;;;;5.17;1.17;;;2.50;99.90;;;;;;5001841;28;20287;-61
2021/04/08 02:59:05;;;;;;;6.60;1.57;;;2.50;99.90;;;;;;5004977;28;20214;-51
2021/04/08 03:01:32;;;;;;;14.03;2.00;;;2.50;99.90;;;;;;5000782;28;20202;-54
2021/04/08 03:03:59;;;;;;;16.07;2.07;;;2.50;99.90;;;;;;4988870;28;20700;-52
2021/04/08 03:06:27;;;;;;;11.30;1.57;;;2.50;99.90;;;;;;4989770;28;20260;-58
2021/04/08 03:08:55;;;;;;;7.17;1.63;;;2.40;99.90;;;;;;5003826;28;20224;-50
2021/04/08 03:11:25;;;;;;;6.07;1.60;;;2.40;99.90;;;;;;5002493;28;20220;-58
2021/04/08 03:13:55;;;;;;;11.20;1.50;;;2.50;99.90;;;;;;4997159;28;20613;-52
2021/04/08 03:16:25;;;;;;;6.83;1.83;;;2.50;99.90;;;;;;4998584;28;20279;-55
2021/04/08 03:18:54;;;;;;;7.30;1.47;;;2.50;99.90;;;;;;5003809;28;20299;-60
2021/04/08 03:21:25;;;;;;;4.70;1.57;;;2.50;99.90;;;;;;4984092;28;20238;-55
2021/04/08 03:23:53;;;;;;;10.10;1.43;;;2.50;99.90;;;;;;4991894;28;20318;-58
2021/04/08 03:26:20;;;;;;;5.93;1.40;;;2.50;99.90;;;;;;5002492;28;20226;-56
2021/04/08 03:28:47;;;;;;;14.80;2.13;;;2.60;99.90;;;;;;5002299;28;20217;-55
2021/04/08 03:31:14;;;;;;;7.47;1.60;;;2.60;99.90;;;;;;5004205;28;20238;-55
2021/04/08 03:33:42;;;;;;;5.83;1.63;;;2.60;99.90;;;;;;5002061;28;20231;-51
2021/04/08 03:36:09;;;;;;;9.00;1.07;;;2.60;99.90;;;;;;4981978;28;20216;-55
2021/04/08 03:38:36;;;;;;;9.43;1.20;;;2.60;99.90;;;;;;4995033;28;20689;-53
2021/04/08 03:41:03;;;;;;;8.67;1.60;;;2.70;99.90;;;;;;5004805;28;20225;-53
2021/04/08 03:43:29;;;;;;;6.10;1.10;;;2.70;99.90;;;;;;5000247;28;20306;-56
2021/04/08 03:45:58;;;;;;;6.60;1.53;;;2.70;99.90;;;;;;5004037;28;20226;-53
2021/04/08 03:48:25;;;;;;;10.30;1.77;;;2.70;99.90;;;;;;5001235;28;20227;-55
2021/04/08 03:50:53;;;;;;;7.17;1.20;;;2.70;99.90;;;;;;4981482;28;20263;-57
2021/04/08 03:53:20;;;;;;;8.43;1.30;;;2.70;99.90;;;;;;4997353;28;20199;-56
2021/04/08 03:55:47;;;;;;;4.87;1.20;;;2.70;99.90;;;;;;4996971;28;20188;-59
2021/04/08 03:58:14;;;;;;;5.07;1.53;;;2.70;99.90;;;;;;5003621;28;20251;-55
2021/04/08 04:00:41;;;;;;;5.20;1.63;;;2.70;99.90;;;;;;4993277;28;20247;-59
2021/04/08 04:03:09;;;;;;;6.13;1.40;;;2.70;99.90;;;;;;5002014;28;20204;-58
2021/04/08 04:05:36;;;;;;;6.90;1.60;;;2.70;99.90;;;;;;4979886;28;20219;-58
2021/04/08 04:08:04;;;;;;;7.27;1.60;;;2.70;99.90;;;;;;4997354;28;20612;-56
2021/04/08 04:10:35;;;;;;;7.37;1.10;;;2.60;99.90;;;;;;4994966;28;20236;-58
2021/04/08 04:13:02;;;;;;;7.50;1.20;;;2.60;99.90;;;;;;4999885;28;20201;-57
2021/04/08 04:15:28;;;;;;;5.57;1.10;;;2.60;99.90;;;;;;4994758;28;20212;-58
2021/04/08 04:17:55;;;;;;;6.57;1.57;;;2.50;99.90;;;;;;5000224;28;20761;-54
2021/04/08 04:20:21;;;;;;;6.57;1.53;;;2.50;99.90;;;;;;4998183;28;20289;-57
2021/04/08 04:22:47;;;;;;;6.07;1.33;;;2.50;99.90;;;;;;4983833;28;20215;-56
2021/04/08 04:25:14;;;;;;;6.80;1.40;;;2.50;99.90;;;;;;5000681;28;20283;-58
2021/04/08 04:27:41;;;;;;;7.80;1.87;;;2.50;99.90;;;;;;5002110;28;20353;-56
2021/04/08 04:30:08;;;;;;;6.23;0.70;;;2.50;99.90;;;;;;5004568;28;20242;-57
2021/04/08 04:32:35;;;;;;;6.13;1.20;;;2.40;99.90;;;;;;5000830;28;20893;-56
2021/04/08 04:35:02;;;;;;;5.40;1.27;;;2.40;99.90;;;;;;5004643;28;20200;-52
2021/04/08 04:37:28;;;;;;;9.97;1.30;;;2.40;99.90;;;;;;4985363;28;20220;-58
2021/04/08 04:39:54;;;;;;;3.47;1.10;;;2.40;99.90;;;;;;4993724;28;20216;-57
2021/04/08 04:42:21;;;;;;;9.83;1.47;;;2.40;99.90;;;;;;4998251;28;20669;-57
2021/04/08 04:44:48;;;;;;;7.60;1.37;;;2.40;99.90;;;;;;5003700;28;20937;-52
2021/04/08 04:47:14;;;;;;;7.17;1.57;;;2.30;99.90;;;;;;5003739;28;20210;-58
2021/04/08 04:49:40;;;;;;;7.87;1.50;;;2.30;99.90;;;;;;4992133;28;20303;-55
2021/04/08 04:52:07;;;;;;;2.17;1.37;;;2.30;99.90;;;;;;5004844;28;20260;-54
2021/04/08 04:54:33;;;;;;;6.77;1.43;;;2.30;99.90;;;;;;4978895;28;20978;-50
2021/04/08 04:56:59;;;;;;;5.67;1.10;;;2.30;99.90;;;;;;4989755;28;20202;-49
2021/04/08 04:59:26;;;;;;;5.00;1.43;;;2.40;99.90;;;;;;5002345;28;20760;-49
2021/04/08 05:01:52;;;;;;;14.93;1.63;;;2.40;99.90;;;;;;4995046;28;20200;-58
2021/04/08 05:04:18;;;;;;;5.40;1.13;;;2.50;99.90;;;;;;5001728;28;20669;-49
2021/04/08 05:06:44;;;;;;;8.07;1.20;;;2.50;99.90;;;;;;5001048;28;20213;-57
2021/04/08 05:09:11;;;;;;;5.27;1.03;;;2.60;99.90;;;;;;4978224;28;21008;-49
2021/04/08 05:11:37;;;;;;;6.30;1.43;;;2.60;99.90;;;;;;4991121;28;20245;-51
2021/04/08 05:14:03;;;;;;;4.50;1.13;;;2.60;99.90;;;;;;5000277;28;20211;-53
2021/04/08 05:16:30;;;;;;;8.73;1.30;;;2.70;99.90;;;;;;4999542;28;20319;-56
2021/04/08 05:18:56;;;;;;;5.37;0.90;;;2.70;99.90;;;;;;4999708;28;20267;-54
2021/04/08 05:21:22;;;;;;;9.00;1.43;;;2.70;99.90;;;;;;4998000;28;20263;-56
2021/04/08 05:23:49;;;;;;;4.93;1.17;;;2.80;99.90;;;;;;4994805;28;20295;-54
2021/04/08 05:26:15;;;;;;;10.37;1.30;;;2.80;99.90;;;;;;4977532;28;20202;-50
2021/04/08 05:28:41;;;;;;;7.07;1.33;;;2.80;99.90;;;;;;4993058;28;20239;-49
2021/04/08 05:31:08;;;;;;;4.17;1.00;;;2.80;99.90;;;;;;4997637;28;20251;-54
2021/04/08 05:33:35;;;;;;;5.37;0.93;;;2.90;99.90;;;;;;4991549;28;20207;-55
2021/04/08 05:36:01;;;;;;;7.97;1.13;;;2.90;99.90;;;;;;5000682;28;20294;-56
2021/04/08 05:38:27;;;;;;;5.50;1.40;;;2.90;99.90;;;;;;5004475;28;20196;-51
2021/04/08 05:40:53;;;;;;;5.23;1.07;;;2.90;99.90;;;;;;4989600;28;20579;-55
2021/04/08 05:43:20;;;;;;;8.87;1.53;;;3.00;99.90;;;;;;4995941;28;23390;-49
2021/04/08 05:45:46;;;;;;;8.73;1.23;;;3.00;99.90;;;;;;5003933;28;20200;-54
2021/04/08 05:48:12;;;;;;;9.60;1.43;;;3.00;99.90;;;;;;4996723;28;20284;-55
2021/04/08 05:50:39;;;;;;;8.10;1.60;;;3.00;99.90;;;;;;5004392;28;20753;-51
2021/04/08 05:53:05;;;;;;;6.57;1.03;;;2.90;99.90;;;;;;5000907;28;20209;-56
2021/04/08 05:55:32;;;;;;;5.47;1.37;;;2.90;99.90;;;;;;4980888;28;20232;-49
2021/04/08 05:57:58;;;;;;;10.30;1.20;;;2.90;99.90;;;;;;4992666;28;20234;-53
2021/04/08 06:00:25;;;;;;;9.63;1.53;;;2.90;99.90;;;;;;4998701;28;20212;-50
2021/04/08 06:02:51;;;;;;;8.10;1.80;;;2.90;99.90;;;;;;5002262;28;20747;-52
2021/04/08 06:05:18;;;;;;;5.53;1.60;;;2.80;99.90;;;;;;4997829;28;20200;-50
2021/04/08 06:07:45;;;;;;;7.40;1.30;;;2.80;99.90;;;;;;5005966;28;20298;-50
2021/04/08 06:10:12;;;;;;;7.80;1.30;;;2.80;99.90;;;;;;4985923;28;20438;-58
2021/04/08 06:12:40;;;;;;;8.63;1.73;;;2.70;99.90;;;;;;4998665;28;20291;-51
2021/04/08 06:15:08;;;;;;;16.70;2.87;;;2.70;99.90;;;;;;4994428;28;20691;-59
2021/04/08 06:17:34;;;;;;;7.13;1.60;;;2.70;99.90;;;;;;5005299;28;20220;-53
2021/04/08 06:20:00;;;;;;;7.07;1.13;;;2.70;99.90;;;;;;5002960;28;20705;-60
2021/04/08 06:22:26;;;;;;;13.47;2.37;;;2.70;99.90;;;;;;4994140;28;20196;-52
2021/04/08 06:24:53;;;;;;;7.53;1.63;;;2.70;99.90;;;;;;4995312;28;20288;-58
2021/04/08 06:27:20;;;;;;;8.03;1.20;;;2.80;99.90;;;;;;4979377;28;20252;-51
2021/04/08 06:29:46;;;;;;;7.87;1.90;;;2.80;99.90;;;;;;4993950;28;20600;-49
2021/04/08 06:32:12;;;;;;;13.80;1.60;;;2.80;99.90;;;;;;4997025;28;20834;-54
2021/04/08 06:34:38;;;;;;;13.73;2.43;;;2.90;99.90;;;;;;5004906;28;20206;-56
2021/04/08 06:37:04;;;;;;;8.03;1.43;;;2.90;99.90;;;;;;4998261;28;20304;-60
2021/04/08 06:39:34;;;;;;;5.20;1.37;;;2.90;99.90;;;;;;5003679;28;20206;-52
2021/04/08 06:42:01;;;;;;;5.70;1.60;;;3.00;99.90;;;;;;4979925;28;20213;-55
2021/04/08 06:44:29;;;;;;;9.27;1.67;;;3.10;99.90;;;;;;4999453;28;20191;-58
2021/04/08 06:46:58;;;;;;;5.30;1.13;;;3.20;99.90;;;;;;4988408;28;20738;-53
2021/04/08 06:49:43;;;;;;;4.97;1.50;;;3.20;99.90;;;;;;5000888;28;20219;-56
2021/04/08 06:52:11;;;;;;;6.90;1.97;;;3.30;99.90;;;;;;4992968;28;20254;-56
2021/04/08 06:54:38;;;;;;;2.73;1.33;;;3.30;99.90;;;;;;4993866;28;20246;-58
2021/04/08 06:57:06;;;;;;;12.63;1.77;;;3.40;99.90;;;;;;4981666;28;20279;-52
2021/04/08 06:59:32;;;;;;;13.60;1.80;;;3.50;99.90;;;;;;4996091;28;20233;-57
2021/04/08 07:01:59;;;;;;;3.57;1.53;;;3.60;99.90;;;;;;4984442;28;20975;-48
2021/04/08 07:04:26;;;;;;;8.57;1.10;;;3.60;99.90;;;;;;4998982;28;20200;-58
2021/04/08 07:06:52;;;;;;;7.13;1.63;;;3.70;99.90;;;;;;4994660;28;20247;-51
2021/04/08 07:09:19;;;;;;;8.47;1.40;;;3.70;99.90;;;;;;5017602;28;20598;-50
2021/04/08 07:11:45;;;;;;;5.20;1.17;;;3.70;99.90;;;;;;4982248;28;20909;-49
2021/04/08 07:14:12;;;;;;;5.87;1.10;;;3.70;99.90;;;;;;5000827;28;20203;-53
2021/04/08 07:16:39;;;;;;;4.60;1.30;;;3.70;99.90;;;;;;4991265;28;20541;-60
2021/04/08 07:19:07;;;;;;;7.07;2.00;;;3.70;99.90;;;;;;4998227;28;20193;-49
2021/04/08 07:21:35;;;;;;;8.17;1.47;;;3.70;99.90;;;;;;5002414;28;20208;-59
2021/04/08 07:24:12;;;;;;;8.13;1.63;;;3.90;99.90;;;;;;4999354;28;20198;-50
2021/04/08 07:26:55;;;;;;;7.27;1.73;;;4.00;99.90;;;;;;4996761;28;20236;-58
2021/04/08 07:29:43;;;;;;;5.80;1.53;;;4.20;99.90;;;;;;4981498;28;20296;-51
2021/04/08 07:32:11;;;;;;;5.37;1.47;;;4.30;99.90;;;;;;4994451;28;20216;-48
2021/04/08 07:34:39;;;;;;;6.47;1.60;;;4.30;99.90;;;;;;4989806;28;20288;-58
2021/04/08 07:37:07;;;;;;;6.60;1.50;;;4.40;99.90;;;;;;4998796;28;20275;-49
2021/04/08 07:39:38;;;;;;;4.50;1.40;;;4.40;99.90;;;;;;4997289;28;20248;-57
2021/04/08 07:42:07;;;;;;;5.80;1.20;;;4.40;99.90;;;;;;5003858;28;20275;-48
2021/04/08 07:44:45;;;;;;;4.57;0.90;;;4.30;99.90;;;;;;4983020;28;20673;-58
2021/04/08 07:47:20;;;;;;;2.03;1.07;;;4.30;99.90;;;;;;4997107;28;20204;-51
2021/04/08 07:49:48;;;;;;;3.93;1.13;;;4.20;99.90;;;;;;4990617;28;20218;-60
2021/04/08 07:52:26;;;;;;;5.80;1.47;;;4.20;99.90;;;;;;5004107;28;20251;-57
2021/04/08 07:55:04;;;;;;;5.73;1.20;;;4.20;99.90;;;;;;4994798;28;20214;-58
2021/04/08 07:57:31;;;;;;;8.03;1.30;;;4.10;99.90;;;;;;4994888;28;20706;-56
2021/04/08 08:00:17;;;;;;;3.67;0.87;;;4.10;99.90;;;;;;4985795;28;20217;-54
2021/04/08 08:02:43;;;;;;;5.00;1.10;;;4.00;99.90;;;;;;4995679;28;20900;-55
2021/04/08 08:05:18;;;;;;;5.33;1.47;;;4.00;99.90;;;;;;5001136;28;20212;-57
2021/04/08 08:07:45;;;;;;;5.47;1.00;;;4.10;99.90;;;;;;4994064;28;20851;-49
2021/04/08 08:10:21;;;;;;;4.13;1.23;;;4.40;99.90;;;;;;4991180;28;20307;-54
2021/04/08 08:12:47;;;;;;;6.40;2.23;;;4.70;99.90;;;;;;4995225;28;20197;-54
2021/04/08 08:15:17;;;;;;;6.17;1.33;;;4.70;99.90;;;;;;4984408;28;20571;-51
2021/04/08 08:17:43;;;;;;;3.60;1.27;;;4.70;99.90;;;;;;4984937;28;20280;-54
2021/04/08 08:20:10;;;;;;;7.90;1.57;;;4.60;99.90;;;;;;4999249;28;20224;-52
2021/04/08 08:22:38;;;;;;;7.13;1.33;;;4.50;99.90;;;;;;4996180;28;20204;-54
2021/04/08 08:25:05;;;;;;;4.97;1.23;;;4.50;99.90;;;;;;4996089;28;20912;-58
2021/04/08 08:27:43;;;;;;;5.57;1.33;;;4.50;99.90;;;;;;5001291;28;20292;-55
2021/04/08 08:30:13;;;;;;;3.63;1.30;;;4.60;99.90;;;;;;4976788;28;20895;-58
2021/04/08 08:33:04;;;;;;;5.70;1.40;;;4.60;99.90;;;;;;4990141;28;20263;-52
2021/04/08 08:35:30;;;;;;;4.77;1.40;;;4.60;99.90;;;;;;4996187;28;20274;-56
2021/04/08 08:37:57;;;;;;;3.13;1.07;;;4.70;99.90;;;;;;4997463;28;20267;-56
2021/04/08 08:40:23;;;;;;;4.93;2.30;;;4.80;99.90;;;;;;4983168;28;20225;-60
2021/04/08 08:42:51;;;;;;;6.23;1.50;;;4.90;99.90;;;;;;5001794;28;20263;-55
2021/04/08 08:45:19;;;;;;;1.80;1.13;;;4.90;99.90;;;;;;4980343;28;20210;-59
2021/04/08 08:47:48;;;;;;;3.03;1.40;;;4.80;99.90;;;;;;4998335;28;20266;-49
2021/04/08 08:50:18;;;;;;;9.40;1.70;;;4.80;99.90;;;;;;4990095;28;20889;-54
2021/04/08 08:52:50;;;;;;;6.47;1.53;;;4.80;99.90;;;;;;4998991;28;20292;-53
2021/04/08 08:55:19;;;;;;;9.40;1.73;;;4.90;99.90;;;;;;4997140;28;20250;-54
2021/04/08 08:57:48;;;;;;;6.33;1.57;;;4.90;99.90;;;;;;4996278;28;20259;-56
2021/04/08 09:00:16;;;;;;;5.27;1.43;;;5.00;99.90;;;;;;4979545;28;20812;-57
2021/04/08 09:02:43;;;;;;;6.97;1.50;;;5.10;99.90;;;;;;4984510;28;20569;-52
2021/04/08 09:05:14;;;;;;;8.13;1.70;;;5.20;99.90;;;;;;4990781;28;20224;-60
2021/04/08 09:07:41;;;;;;;4.23;1.80;;;5.20;99.90;;;;;;4993064;28;20200;-51
2021/04/08 09:10:09;;;;;;;7.33;2.20;;;5.30;99.90;;;;;;4998629;28;20225;-56
2021/04/08 09:12:35;;;;;;;3.97;1.53;;;5.30;99.90;;;;;;5002547;28;20292;-56
2021/04/08 09:15:05;;;;;;;4.80;1.40;;;5.30;99.90;;;;;;4983606;28;20263;-59
2021/04/08 09:17:39;;;;;;;6.93;1.70;;;5.30;99.90;;;;;;4995541;28;20231;-53
2021/04/08 09:20:06;;;;;;;4.03;1.57;;;5.20;99.90;;;;;;4996020;28;20600;-57
2021/04/08 09:22:34;;;;;;;7.43;1.50;;;5.30;99.90;;;;;;5001000;28;20281;-59
2021/04/08 09:25:01;;;;;;;5.67;1.23;;;5.40;99.90;;;;;;5003671;28;20702;-55
2021/04/08 09:27:27;;;;;;;5.90;1.60;;;5.50;99.90;;;;;;5013665;28;20942;-59
2021/04/08 09:29:56;;;;;;;4.90;1.50;;;5.50;99.90;;;;;;4997872;28;20397;-55
2021/04/08 09:32:33;;;;;;;3.97;1.30;;;5.50;99.90;;;;;;4983960;28;20212;-59
2021/04/08 09:35:14;;;;;;;4.37;1.10;;;5.40;99.90;;;;;;4994616;28;20267;-54
2021/04/08 09:38:20;;;;;;;2.03;1.57;;;5.50;99.90;;;;;;4997328;28;20684;-53
2021/04/08 09:40:49;;;;;;;3.77;1.10;;;5.40;99.90;;;;;;5003242;28;20208;-57
2021/04/08 09:43:17;;;;;;;6.33;1.50;;;5.40;99.90;;;;;;4996822;28;20785;-55
2021/04/08 09:45:48;;;;;;;3.73;1.10;;;5.30;99.90;;;;;;4999516;28;20218;-58
2021/04/08 09:48:16;;;;;;;5.83;1.20;;;5.30;99.90;;;;;;4977239;28;20201;-56
2021/04/08 09:50:44;;;;;;;5.53;1.27;;;5.40;99.90;;;;;;4998789;28;20220;-55
2021/04/08 09:53:10;;;;;;;4.53;0.90;;;5.50;99.90;;;;;;4984152;28;20205;-50
2021/04/08 09:55:37;;;;;;;5.20;0.87;;;5.50;99.90;;;;;;4996295;28;20246;-53
2021/04/08 09:58:05;;;;;;;4.40;1.00;;;5.40;99.90;;;;;;5002613;28;20211;-55
2021/04/08 10:00:32;;;;;;;5.50;0.97;;;5.20;99.90;;;;;;4995933;28;20595;-49
2021/04/08 10:03:00;;;;;;;4.90;0.80;;;5.00;99.90;;;;;;4985438;28;20208;-58
2021/04/08 10:05:31;;;;;;;4.97;0.73;;;4.90;99.90;;;;;;4996096;28;20200;-55
2021/04/08 10:07:59;;;;;;;3.10;0.83;;;5.00;99.90;;;;;;4994521;28;20227;-58
2021/04/08 10:10:40;;;;;;;4.63;1.13;;;5.10;99.90;;;;;;4983721;28;20522;-50
2021/04/08 10:13:18;;;;;;;7.67;1.30;;;5.10;99.90;;;;;;4994832;28;20201;-56
2021/04/08 10:15:45;;;;;;;2.47;0.80;;;5.00;99.90;;;;;;4990750;28;20538;-56
2021/04/08 10:18:15;;;;;;;0.60;0.50;;;5.00;99.90;;;;;;4984087;28;20266;-57
2021/04/08 10:20:42;;;;;;;3.17;0.70;;;5.10;99.90;;;;;;4997063;28;20231;-53
2021/04/08 10:23:09;;;;;;;1.57;1.17;;;5.20;99.90;;;;;;4993039;28;20229;-58
2021/04/08 10:25:36;;;;;;;4.33;1.07;;;5.10;99.90;;;;;;4997771;28;20209;-58
2021/04/08 10:28:03;;;;;;;1.93;0.43;;;5.20;99.90;;;;;;5002963;28;20204;-56
2021/04/08 10:30:38;;;;;;;3.00;0.93;;;5.20;99.90;;;;;;4981881;28;515310;-52
2021/04/08 10:33:15;;;;;;;3.70;0.50;;;5.40;99.90;;;;;;4981515;28;20685;-56
2021/04/08 10:35:43;;;;;;;4.23;0.70;;;5.60;99.90;;;;;;4998079;28;20204;-52
2021/04/08 10:38:09;;;;;;;1.00;0.70;;;5.70;99.90;;;;;;4991687;28;20254;-55
2021/04/08 10:40:37;;;;;;;3.57;0.60;;;5.70;99.90;;;;;;4993320;28;20244;-54
2021/04/08 10:43:11;;;;;;;4.50;0.60;;;5.80;99.90;;;;;;5001192;28;20228;-53
2021/04/08 10:45:39;;;;;;;4.63;1.27;;;5.90;99.90;;;;;;5004731;28;20220;-55
2021/04/08 10:48:09;;;;;;;1.80;0.60;;;6.00;99.90;;;;;;4985022;28;20212;-55
2021/04/08 10:50:35;;;;;;;3.63;0.47;;;6.00;99.90;;;;;;4995513;28;20308;-56
2021/04/08 10:53:01;;;;;;;2.40;0.70;;;6.10;99.90;;;;;;4995477;28;20299;-54
2021/04/08 10:55:28;;;;;;;4.03;0.67;;;6.10;99.90;;;;;;4997472;28;20414;-53
2021/04/08 10:57:54;;;;;;;2.17;0.90;;;6.10;99.90;;;;;;4998763;28;20539;-56
2021/04/08 11:00:22;;;;;;;1.83;0.80;;;6.10;99.90;;;;;;4988276;28;20463;-54
2021/04/08 11:02:49;;;;;;;2.37;0.80;;;6.00;99.90;;;;;;4998524;28;20205;-50
2021/04/08 11:05:18;;;;;;;5.00;1.00;;;5.90;99.90;;;;;;4985223;28;20197;-54
2021/04/08 11:07:46;;;;;;;2.47;0.70;;;5.90;99.90;;;;;;5002489;28;20628;-53
2021/04/08 11:10:14;;;;;;;1.67;0.73;;;5.90;99.90;;;;;;4988240;28;20926;-55
2021/04/08 11:12:41;;;;;;;4.53;0.80;;;6.00;99.90;;;;;;5000724;28;20296;-56
2021/04/08 11:15:10;;;;;;;0.67;0.53;;;6.10;99.90;;;;;;4997977;28;20205;-54
2021/04/08 11:17:40;;;;;;;2.77;0.80;;;6.20;99.90;;;;;;4997674;28;20197;-53
2021/04/08 11:20:08;;;;;;;3.80;0.57;;;6.20;99.90;;;;;;4968744;28;20353;-53
2021/04/08 11:22:36;;;;;;;1.97;0.50;;;6.30;99.90;;;;;;4993072;28;20205;-55
2021/04/08 11:25:08;;;;;;;3.23;0.70;;;6.30;99.90;;;;;;4997687;28;20209;-51
2021/04/08 11:27:39;;;;;;;3.40;0.90;;;6.40;99.90;;;;;;4993932;28;20207;-53
2021/04/08 11:30:07;;;;;;;2.07;0.57;;;6.50;99.90;;;;;;5000419;28;20228;-56
2021/04/08 11:32:43;;;;;;;4.23;0.80;;;6.50;99.90;;;;;;4995058;28;20200;-52
2021/04/08 11:35:25;;;;;;;4.20;0.60;;;6.50;99.90;;;;;;4981305;28;20250;-58
2021/04/08 11:38:04;;;;;;;1.17;0.50;;;6.50;99.90;;;;;;4986874;28;20223;-55
2021/04/08 11:40:30;;;;;;;2.53;0.70;;;6.40;99.90;;;;;;4994567;28;20613;-50
2021/04/08 11:42:57;;;;;;;2.83;0.40;;;6.40;99.90;;;;;;4998876;28;20576;-56
2021/04/08 11:45:25;;;;;;;1.43;0.50;;;6.30;99.90;;;;;;4995728;28;20192;-55
2021/04/08 11:47:56;;;;;;;5.03;0.70;;;6.30;99.90;;;;;;4998174;28;20719;-55
2021/04/08 11:50:27;;;;;;;3.77;0.60;;;6.30;99.90;;;;;;4995579;28;20414;-48
2021/04/08 11:53:05;;;;;;;2.53;0.60;;;6.30;99.90;;;;;;4976685;28;20296;-53
2021/04/08 11:55:37;;;;;;;2.10;1.37;;;6.30;99.90;;;;;;4995933;28;20984;-50
2021/04/08 11:58:03;;;;;;;5.33;0.83;;;6.20;99.90;;;;;;4996999;28;20728;-50
2021/04/08 12:00:30;;;;;;;3.30;1.23;;;6.30;99.90;;;;;;4991096;28;20209;-52
2021/04/08 12:02:57;;;;;;;6.40;2.20;;;6.40;99.90;;;;;;4999739;28;20227;-54
2021/04/08 12:05:24;;;;;;;6.07;2.07;;;6.50;99.90;;;;;;4990895;28;20915;-52
2021/04/08 12:07:51;;;;;;;3.57;1.63;;;6.50;99.90;;;;;;4982706;28;20212;-50
2021/04/08 12:10:26;;;;;;;1.13;0.60;;;6.50;99.90;;;;;;4986037;28;20291;-51
2021/04/08 12:12:54;;;;;;;2.57;1.00;;;6.70;99.90;;;;;;4990216;28;20697;-58
2021/04/08 12:15:32;;;;;;;2.53;1.23;;;6.90;99.90;;;;;;4996701;28;20189;-53
2021/04/08 12:17:58;;;;;;;0.90;0.67;;;7.00;99.90;;;;;;4998198;28;20295;-54
2021/04/08 12:20:26;;;;;;;2.47;1.03;;;7.10;99.90;;;;;;4994729;28;20223;-51
2021/04/08 12:22:53;;;;;;;4.43;1.20;;;7.10;99.90;;;;;;5001731;28;20689;-54
2021/04/08 12:25:21;;;;;;;3.17;0.93;;;7.20;99.90;;;;;;4985442;28;20290;-50
2021/04/08 12:27:49;;;;;;;3.03;0.80;;;7.30;99.90;;;;;;4987138;28;22778;-49
2021/04/08 12:30:17;;;;;;;3.33;0.97;;;7.20;99.90;;;;;;4998894;28;20229;-55
2021/04/08 12:32:43;;;;;;;2.67;0.90;;;7.20;99.90;;;;;;4996597;28;20281;-52
2021/04/08 12:35:11;;;;;;;1.80;0.83;;;7.20;99.90;;;;;;4999858;28;20212;-53
2021/04/08 12:37:38;;;;;;;4.67;1.40;;;7.20;99.90;;;;;;4995547;28;20254;-55
2021/04/08 12:40:06;;;;;;;3.53;0.93;;;7.10;99.90;;;;;;4981714;28;20217;-50
2021/04/08 12:42:32;;;;;;;4.20;0.83;;;7.20;99.90;;;;;;4990165;28;20223;-55
2021/04/08 12:44:58;;;;;;;2.23;0.97;;;7.10;99.90;;;;;;4996811;28;20213;-51
2021/04/08 12:47:26;;;;;;;1.63;1.13;;;7.00;99.90;;;;;;5001378;28;20204;-53
2021/04/08 12:49:53;;;;;;;2.70;1.40;;;7.00;99.90;;;;;;4996173;28;20221;-52
2021/04/08 12:52:19;;;;;;;1.03;1.00;;;7.20;99.90;;;;;;5010823;28;20197;-52
2021/04/08 12:54:46;;;;;;;3.90;0.53;;;7.40;99.90;;;;;;4982022;28;20216;-52
2021/04/08 12:57:12;;;;;;;3.80;1.07;;;7.60;99.90;;;;;;4995137;28;20273;-51
2021/04/08 12:59:38;;;;;;;1.00;0.63;;;7.70;99.90;;;;;;4989894;28;20810;-48
2021/04/08 13:02:05;;;;;;;1.73;0.63;;;7.80;99.90;;;;;;4994861;28;20242;-54
2021/04/08 13:04:31;;;;;;;5.50;1.27;;;7.90;99.90;;;;;;4999374;28;20862;-48